Weather at Campo di Volo Paretano Fly

Public forecast

Using degrees Celsius for public forecast. Weather courtesy of forecast.io.

Closest aviation weather report (METAR) to Campo di Volo Paretano Fly

Closest report is Gioia Del Colle Air Base, 16.3 nm (30.3 km) WSW. Retrieved 2022/01/18 05:55 UTC (1 hour ago):

LIBV 180555Z 31007KT 5000 BR SCT020 06/05 Q1026 RMK SCT VIS MIN 5000 WIND THR32 33007KT WIND THR14 32007KT WHT

Closest aviation forecast (TAF) to Campo di Volo Paretano Fly

Forecast is more than 12 hours old.

Closest forecast is Gioia Del Colle Air Base, 16.3 nm (30.3 km) WSW. Retrieved 2021/11/04 06:27 UTC (3 months ago):

TAF TAF COR LIBV 040500Z 0406/0418 15022G35KT 0800 FG OVC003 BECMG 0407/0409 4000 BR BKN007 BECMG 0410/0412 16018G28KT 5000 BR BKN010 SCT035 BECMG 0415/0417 16015KT TEMPO 0411/0415 SHRA